sensor_id;sensor_type;location;lat;lon;timestamp;P1;durP1;ratioP1;P2;durP2;ratioP2
62848;SDS011;48941;49.516;8.286;2022-09-03T00:00:34;6.68;;;1.92;;
62848;SDS011;48941;49.516;8.286;2022-09-03T00:03:06;5.63;;;2.20;;
62848;SDS011;48941;49.516;8.286;2022-09-03T00:05:40;4.15;;;2.05;;
62848;SDS011;48941;49.516;8.286;2022-09-03T00:08:14;12.82;;;2.55;;
62848;SDS011;48941;49.516;8.286;2022-09-03T00:10:50;3.97;;;2.22;;
62848;SDS011;48941;49.516;8.286;2022-09-03T00:13:23;4.93;;;2.22;;
62848;SDS011;48941;49.516;8.286;2022-09-03T00:15:53;5.07;;;2.25;;
62848;SDS011;48941;49.516;8.286;2022-09-03T00:18:26;2.28;;;2.00;;
62848;SDS011;48941;49.516;8.286;2022-09-03T00:23:34;5.97;;;2.15;;
62848;SDS011;48941;49.516;8.286;2022-09-03T00:26:08;8.75;;;1.98;;
62848;SDS011;48941;49.516;8.286;2022-09-03T00:28:44;2.33;;;2.08;;
62848;SDS011;48941;49.516;8.286;2022-09-03T00:31:15;7.03;;;2.00;;
62848;SDS011;48941;49.516;8.286;2022-09-03T00:33:53;2.78;;;2.00;;
62848;SDS011;48941;49.516;8.286;2022-09-03T00:36:27;3.45;;;2.17;;
62848;SDS011;48941;49.516;8.286;2022-09-03T00:39:00;6.47;;;2.10;;
62848;SDS011;48941;49.516;8.286;2022-09-03T00:41:31;5.20;;;1.90;;
62848;SDS011;48941;49.516;8.286;2022-09-03T00:44:07;4.32;;;2.00;;
62848;SDS011;48941;49.516;8.286;2022-09-03T00:46:48;4.47;;;1.92;;
62848;SDS011;48941;49.516;8.286;2022-09-03T00:49:32;3.28;;;2.00;;
62848;SDS011;48941;49.516;8.286;2022-09-03T00:52:13;1.98;;;1.75;;
62848;SDS011;48941;49.516;8.286;2022-09-03T00:55:02;3.22;;;2.15;;
62848;SDS011;48941;49.516;8.286;2022-09-03T00:57:40;4.13;;;1.90;;
62848;SDS011;48941;49.516;8.286;2022-09-03T01:00:17;4.22;;;1.70;;
62848;SDS011;48941;49.516;8.286;2022-09-03T01:02:50;2.78;;;1.70;;
62848;SDS011;48941;49.516;8.286;2022-09-03T01:05:37;3.28;;;1.60;;
62848;SDS011;48941;49.516;8.286;2022-09-03T01:08:17;3.75;;;1.92;;
62848;SDS011;48941;49.516;8.286;2022-09-03T01:10:59;4.80;;;1.98;;
62848;SDS011;48941;49.516;8.286;2022-09-03T01:13:37;7.55;;;1.98;;
62848;SDS011;48941;49.516;8.286;2022-09-03T01:18:46;4.88;;;1.90;;
62848;SDS011;48941;49.516;8.286;2022-09-03T01:24:28;4.68;;;1.90;;
62848;SDS011;48941;49.516;8.286;2022-09-03T01:27:17;5.35;;;1.98;;
62848;SDS011;48941;49.516;8.286;2022-09-03T01:29:59;6.70;;;1.80;;
62848;SDS011;48941;49.516;8.286;2022-09-03T01:32:34;4.55;;;1.90;;
62848;SDS011;48941;49.516;8.286;2022-09-03T01:35:09;6.50;;;2.00;;
62848;SDS011;48941;49.516;8.286;2022-09-03T01:37:49;4.10;;;2.00;;
62848;SDS011;48941;49.516;8.286;2022-09-03T01:40:29;2.35;;;1.88;;
62848;SDS011;48941;49.516;8.286;2022-09-03T01:43:06;2.80;;;2.00;;
62848;SDS011;48941;49.516;8.286;2022-09-03T01:46:04;6.32;;;2.10;;
62848;SDS011;48941;49.516;8.286;2022-09-03T01:48:43;5.88;;;1.92;;
62848;SDS011;48941;49.516;8.286;2022-09-03T01:51:18;2.42;;;1.80;;
62848;SDS011;48941;49.516;8.286;2022-09-03T01:53:55;3.55;;;2.10;;
62848;SDS011;48941;49.516;8.286;2022-09-03T01:56:42;3.58;;;2.00;;
62848;SDS011;48941;49.516;8.286;2022-09-03T01:59:26;2.67;;;2.13;;
62848;SDS011;48941;49.516;8.286;2022-09-03T02:02:00;5.85;;;2.10;;
62848;SDS011;48941;49.516;8.286;2022-09-03T02:04:32;1.98;;;1.85;;
62848;SDS011;48941;49.516;8.286;2022-09-03T02:07:00;2.25;;;1.90;;
62848;SDS011;48941;49.516;8.286;2022-09-03T02:09:30;6.88;;;1.77;;
62848;SDS011;48941;49.516;8.286;2022-09-03T02:12:00;3.42;;;2.03;;
62848;SDS011;48941;49.516;8.286;2022-09-03T02:14:34;2.63;;;1.90;;
62848;SDS011;48941;49.516;8.286;2022-09-03T02:17:04;4.50;;;2.08;;
62848;SDS011;48941;49.516;8.286;2022-09-03T02:19:33;3.38;;;2.10;;
62848;SDS011;48941;49.516;8.286;2022-09-03T02:22:02;7.35;;;2.00;;
62848;SDS011;48941;49.516;8.286;2022-09-03T02:24:31;4.88;;;1.95;;
62848;SDS011;48941;49.516;8.286;2022-09-03T02:26:59;8.02;;;2.13;;
62848;SDS011;48941;49.516;8.286;2022-09-03T02:29:27;2.15;;;2.03;;
62848;SDS011;48941;49.516;8.286;2022-09-03T02:31:56;2.83;;;1.90;;
62848;SDS011;48941;49.516;8.286;2022-09-03T02:34:26;4.05;;;2.10;;
62848;SDS011;48941;49.516;8.286;2022-09-03T02:36:54;5.65;;;1.92;;
62848;SDS011;48941;49.516;8.286;2022-09-03T02:39:21;3.05;;;2.20;;
62848;SDS011;48941;49.516;8.286;2022-09-03T02:41:50;3.53;;;2.15;;
62848;SDS011;48941;49.516;8.286;2022-09-03T02:44:23;2.60;;;1.80;;
62848;SDS011;48941;49.516;8.286;2022-09-03T02:46:57;4.00;;;1.70;;
62848;SDS011;48941;49.516;8.286;2022-09-03T02:49:28;3.72;;;1.70;;
62848;SDS011;48941;49.516;8.286;2022-09-03T02:51:57;6.57;;;1.75;;
62848;SDS011;48941;49.516;8.286;2022-09-03T02:54:26;3.15;;;2.08;;
62848;SDS011;48941;49.516;8.286;2022-09-03T02:56:54;4.47;;;2.08;;
62848;SDS011;48941;49.516;8.286;2022-09-03T02:59:22;5.22;;;2.10;;
62848;SDS011;48941;49.516;8.286;2022-09-03T03:01:49;3.60;;;1.98;;
62848;SDS011;48941;49.516;8.286;2022-09-03T03:04:17;2.85;;;1.83;;
62848;SDS011;48941;49.516;8.286;2022-09-03T03:06:47;4.55;;;2.10;;
62848;SDS011;48941;49.516;8.286;2022-09-03T03:09:15;2.90;;;1.90;;
62848;SDS011;48941;49.516;8.286;2022-09-03T03:11:43;3.55;;;2.00;;
62848;SDS011;48941;49.516;8.286;2022-09-03T03:14:12;5.38;;;2.00;;
62848;SDS011;48941;49.516;8.286;2022-09-03T03:16:39;7.78;;;1.88;;
62848;SDS011;48941;49.516;8.286;2022-09-03T03:19:07;4.10;;;2.38;;
62848;SDS011;48941;49.516;8.286;2022-09-03T03:21:35;4.82;;;1.75;;
62848;SDS011;48941;49.516;8.286;2022-09-03T03:24:04;3.38;;;1.70;;
62848;SDS011;48941;49.516;8.286;2022-09-03T03:26:33;3.50;;;1.95;;
62848;SDS011;48941;49.516;8.286;2022-09-03T03:29:01;3.92;;;2.10;;
62848;SDS011;48941;49.516;8.286;2022-09-03T03:31:31;3.35;;;1.95;;
62848;SDS011;48941;49.516;8.286;2022-09-03T03:33:59;2.88;;;2.13;;
62848;SDS011;48941;49.516;8.286;2022-09-03T03:36:29;3.85;;;1.85;;
62848;SDS011;48941;49.516;8.286;2022-09-03T03:38:59;2.10;;;1.90;;
62848;SDS011;48941;49.516;8.286;2022-09-03T03:41:29;4.28;;;2.00;;
62848;SDS011;48941;49.516;8.286;2022-09-03T03:43:59;3.72;;;1.92;;
62848;SDS011;48941;49.516;8.286;2022-09-03T03:46:29;2.92;;;1.90;;
62848;SDS011;48941;49.516;8.286;2022-09-03T03:48:58;2.17;;;1.98;;
62848;SDS011;48941;49.516;8.286;2022-09-03T03:51:26;4.38;;;2.17;;
62848;SDS011;48941;49.516;8.286;2022-09-03T03:53:56;2.28;;;2.00;;
62848;SDS011;48941;49.516;8.286;2022-09-03T03:56:32;4.03;;;2.13;;
62848;SDS011;48941;49.516;8.286;2022-09-03T03:59:00;4.80;;;2.10;;
62848;SDS011;48941;49.516;8.286;2022-09-03T04:01:28;7.55;;;2.00;;
62848;SDS011;48941;49.516;8.286;2022-09-03T04:03:57;2.53;;;1.98;;
62848;SDS011;48941;49.516;8.286;2022-09-03T04:06:26;5.43;;;1.95;;
62848;SDS011;48941;49.516;8.286;2022-09-03T04:08:54;4.88;;;2.03;;
62848;SDS011;48941;49.516;8.286;2022-09-03T04:11:22;3.90;;;2.40;;
62848;SDS011;48941;49.516;8.286;2022-09-03T04:13:52;3.17;;;2.03;;
62848;SDS011;48941;49.516;8.286;2022-09-03T04:16:21;3.90;;;2.05;;
62848;SDS011;48941;49.516;8.286;2022-09-03T04:18:50;7.18;;;2.38;;
62848;SDS011;48941;49.516;8.286;2022-09-03T04:21:20;2.25;;;2.00;;
62848;SDS011;48941;49.516;8.286;2022-09-03T04:23:49;4.75;;;2.10;;
62848;SDS011;48941;49.516;8.286;2022-09-03T04:26:19;4.97;;;2.10;;
62848;SDS011;48941;49.516;8.286;2022-09-03T04:28:49;2.13;;;1.88;;
62848;SDS011;48941;49.516;8.286;2022-09-03T04:31:18;3.28;;;1.73;;
62848;SDS011;48941;49.516;8.286;2022-09-03T04:33:47;3.58;;;2.20;;
62848;SDS011;48941;49.516;8.286;2022-09-03T04:36:17;2.90;;;2.15;;
62848;SDS011;48941;49.516;8.286;2022-09-03T04:38:46;3.90;;;1.80;;
62848;SDS011;48941;49.516;8.286;2022-09-03T04:41:16;3.33;;;2.03;;
62848;SDS011;48941;49.516;8.286;2022-09-03T04:43:45;2.03;;;1.90;;
62848;SDS011;48941;49.516;8.286;2022-09-03T04:46:19;7.15;;;1.95;;
62848;SDS011;48941;49.516;8.286;2022-09-03T04:48:49;3.83;;;2.20;;
62848;SDS011;48941;49.516;8.286;2022-09-03T04:51:18;4.80;;;2.10;;
62848;SDS011;48941;49.516;8.286;2022-09-03T04:53:52;4.05;;;1.95;;
62848;SDS011;48941;49.516;8.286;2022-09-03T04:56:23;6.90;;;2.22;;
62848;SDS011;48941;49.516;8.286;2022-09-03T04:58:53;5.75;;;2.22;;
62848;SDS011;48941;49.516;8.286;2022-09-03T05:01:24;2.63;;;2.10;;
62848;SDS011;48941;49.516;8.286;2022-09-03T05:03:54;4.45;;;2.20;;
62848;SDS011;48941;49.516;8.286;2022-09-03T05:06:23;4.40;;;2.22;;
62848;SDS011;48941;49.516;8.286;2022-09-03T05:08:52;3.33;;;2.13;;
62848;SDS011;48941;49.516;8.286;2022-09-03T05:11:21;5.00;;;2.20;;
62848;SDS011;48941;49.516;8.286;2022-09-03T05:13:50;2.67;;;2.05;;
62848;SDS011;48941;49.516;8.286;2022-09-03T05:16:19;3.70;;;2.30;;
62848;SDS011;48941;49.516;8.286;2022-09-03T05:18:52;6.13;;;2.20;;
62848;SDS011;48941;49.516;8.286;2022-09-03T05:21:21;5.13;;;2.20;;
62848;SDS011;48941;49.516;8.286;2022-09-03T05:23:50;6.55;;;2.00;;
62848;SDS011;48941;49.516;8.286;2022-09-03T05:26:19;7.72;;;2.13;;
62848;SDS011;48941;49.516;8.286;2022-09-03T05:28:51;2.90;;;2.20;;
62848;SDS011;48941;49.516;8.286;2022-09-03T05:31:20;2.53;;;2.20;;
62848;SDS011;48941;49.516;8.286;2022-09-03T05:33:53;2.30;;;2.10;;
62848;SDS011;48941;49.516;8.286;2022-09-03T05:36:24;3.47;;;2.10;;
62848;SDS011;48941;49.516;8.286;2022-09-03T05:38:53;2.35;;;2.15;;
62848;SDS011;48941;49.516;8.286;2022-09-03T05:41:24;5.75;;;2.47;;
62848;SDS011;48941;49.516;8.286;2022-09-03T05:43:52;4.32;;;2.78;;
62848;SDS011;48941;49.516;8.286;2022-09-03T05:46:25;3.97;;;2.92;;
62848;SDS011;48941;49.516;8.286;2022-09-03T05:48:59;8.27;;;2.40;;
62848;SDS011;48941;49.516;8.286;2022-09-03T05:51:28;4.18;;;2.20;;
62848;SDS011;48941;49.516;8.286;2022-09-03T05:53:57;4.75;;;2.58;;
62848;SDS011;48941;49.516;8.286;2022-09-03T05:56:26;3.92;;;2.35;;
62848;SDS011;48941;49.516;8.286;2022-09-03T05:58:56;4.97;;;2.47;;
62848;SDS011;48941;49.516;8.286;2022-09-03T06:01:27;2.33;;;2.13;;
62848;SDS011;48941;49.516;8.286;2022-09-03T06:03:59;4.07;;;2.17;;
62848;SDS011;48941;49.516;8.286;2022-09-03T06:06:28;3.20;;;2.20;;
62848;SDS011;48941;49.516;8.286;2022-09-03T06:08:59;4.28;;;2.35;;
62848;SDS011;48941;49.516;8.286;2022-09-03T06:11:29;4.03;;;2.00;;
62848;SDS011;48941;49.516;8.286;2022-09-03T06:14:00;2.92;;;2.20;;
62848;SDS011;48941;49.516;8.286;2022-09-03T06:16:31;3.58;;;2.45;;
62848;SDS011;48941;49.516;8.286;2022-09-03T06:19:01;2.50;;;2.30;;
62848;SDS011;48941;49.516;8.286;2022-09-03T06:21:31;4.57;;;2.58;;
62848;SDS011;48941;49.516;8.286;2022-09-03T06:23:59;5.20;;;2.75;;
62848;SDS011;48941;49.516;8.286;2022-09-03T06:26:28;6.20;;;3.15;;
62848;SDS011;48941;49.516;8.286;2022-09-03T06:28:56;5.10;;;2.80;;
62848;SDS011;48941;49.516;8.286;2022-09-03T06:31:25;4.22;;;2.80;;
62848;SDS011;48941;49.516;8.286;2022-09-03T06:33:53;6.47;;;2.55;;
62848;SDS011;48941;49.516;8.286;2022-09-03T06:38:55;4.70;;;2.40;;
62848;SDS011;48941;49.516;8.286;2022-09-03T06:41:25;3.47;;;2.10;;
62848;SDS011;48941;49.516;8.286;2022-09-03T06:43:57;3.20;;;2.30;;
62848;SDS011;48941;49.516;8.286;2022-09-03T06:46:28;8.65;;;2.40;;
62848;SDS011;48941;49.516;8.286;2022-09-03T06:48:57;4.82;;;2.70;;
62848;SDS011;48941;49.516;8.286;2022-09-03T06:51:27;7.30;;;2.70;;
62848;SDS011;48941;49.516;8.286;2022-09-03T06:53:58;5.50;;;3.10;;
62848;SDS011;48941;49.516;8.286;2022-09-03T06:56:28;7.00;;;2.83;;
62848;SDS011;48941;49.516;8.286;2022-09-03T06:59:03;3.78;;;2.75;;
62848;SDS011;48941;49.516;8.286;2022-09-03T07:01:32;4.25;;;2.90;;
62848;SDS011;48941;49.516;8.286;2022-09-03T07:04:02;7.03;;;3.10;;
62848;SDS011;48941;49.516;8.286;2022-09-03T07:06:33;7.45;;;2.78;;
62848;SDS011;48941;49.516;8.286;2022-09-03T07:09:03;5.07;;;2.78;;
62848;SDS011;48941;49.516;8.286;2022-09-03T07:11:31;4.78;;;2.70;;
62848;SDS011;48941;49.516;8.286;2022-09-03T07:14:01;6.13;;;2.70;;
62848;SDS011;48941;49.516;8.286;2022-09-03T07:16:31;4.90;;;2.97;;
62848;SDS011;48941;49.516;8.286;2022-09-03T07:19:00;6.32;;;3.00;;
62848;SDS011;48941;49.516;8.286;2022-09-03T07:21:30;7.45;;;3.15;;
62848;SDS011;48941;49.516;8.286;2022-09-03T07:24:01;7.93;;;3.00;;
62848;SDS011;48941;49.516;8.286;2022-09-03T07:26:31;5.15;;;2.85;;
62848;SDS011;48941;49.516;8.286;2022-09-03T07:29:00;5.57;;;2.70;;
62848;SDS011;48941;49.516;8.286;2022-09-03T07:31:29;4.43;;;2.90;;
62848;SDS011;48941;49.516;8.286;2022-09-03T07:33:59;3.78;;;2.70;;
62848;SDS011;48941;49.516;8.286;2022-09-03T07:36:36;3.95;;;3.10;;
62848;SDS011;48941;49.516;8.286;2022-09-03T07:39:08;4.50;;;2.90;;
62848;SDS011;48941;49.516;8.286;2022-09-03T07:41:37;4.88;;;2.70;;
62848;SDS011;48941;49.516;8.286;2022-09-03T07:44:10;3.40;;;2.95;;
62848;SDS011;48941;49.516;8.286;2022-09-03T07:46:40;6.25;;;3.10;;
62848;SDS011;48941;49.516;8.286;2022-09-03T07:49:08;3.70;;;2.80;;
62848;SDS011;48941;49.516;8.286;2022-09-03T07:51:37;8.48;;;3.78;;
62848;SDS011;48941;49.516;8.286;2022-09-03T07:54:05;9.20;;;3.35;;
62848;SDS011;48941;49.516;8.286;2022-09-03T07:56:38;4.18;;;3.05;;
62848;SDS011;48941;49.516;8.286;2022-09-03T07:59:07;3.72;;;3.20;;
62848;SDS011;48941;49.516;8.286;2022-09-03T08:01:35;3.33;;;3.03;;
62848;SDS011;48941;49.516;8.286;2022-09-03T08:04:07;4.20;;;3.07;;
62848;SDS011;48941;49.516;8.286;2022-09-03T08:06:36;9.05;;;3.30;;
62848;SDS011;48941;49.516;8.286;2022-09-03T08:09:06;6.28;;;3.33;;
62848;SDS011;48941;49.516;8.286;2022-09-03T08:11:39;8.55;;;3.45;;
62848;SDS011;48941;49.516;8.286;2022-09-03T08:14:09;9.00;;;3.40;;
62848;SDS011;48941;49.516;8.286;2022-09-03T08:16:38;6.40;;;3.22;;
62848;SDS011;48941;49.516;8.286;2022-09-03T08:19:08;7.40;;;3.72;;
62848;SDS011;48941;49.516;8.286;2022-09-03T08:21:36;6.65;;;3.20;;
62848;SDS011;48941;49.516;8.286;2022-09-03T08:24:05;8.10;;;3.60;;
62848;SDS011;48941;49.516;8.286;2022-09-03T08:26:34;4.22;;;3.35;;
62848;SDS011;48941;49.516;8.286;2022-09-03T08:29:04;5.28;;;3.80;;
62848;SDS011;48941;49.516;8.286;2022-09-03T08:31:33;6.97;;;3.80;;
62848;SDS011;48941;49.516;8.286;2022-09-03T08:34:02;7.47;;;3.85;;
62848;SDS011;48941;49.516;8.286;2022-09-03T08:36:33;7.25;;;3.80;;
62848;SDS011;48941;49.516;8.286;2022-09-03T08:39:03;4.88;;;3.38;;
62848;SDS011;48941;49.516;8.286;2022-09-03T08:44:45;7.18;;;3.67;;
62848;SDS011;48941;49.516;8.286;2022-09-03T08:47:20;3.83;;;3.42;;
62848;SDS011;48941;49.516;8.286;2022-09-03T08:49:51;5.60;;;3.90;;
62848;SDS011;48941;49.516;8.286;2022-09-03T08:52:24;5.75;;;3.50;;
62848;SDS011;48941;49.516;8.286;2022-09-03T08:54:57;4.65;;;3.80;;
62848;SDS011;48941;49.516;8.286;2022-09-03T08:57:39;7.75;;;4.25;;
62848;SDS011;48941;49.516;8.286;2022-09-03T09:00:12;5.53;;;3.63;;
62848;SDS011;48941;49.516;8.286;2022-09-03T09:02:43;8.25;;;4.30;;
62848;SDS011;48941;49.516;8.286;2022-09-03T09:05:21;6.55;;;4.10;;
62848;SDS011;48941;49.516;8.286;2022-09-03T09:07:54;7.53;;;4.30;;
62848;SDS011;48941;49.516;8.286;2022-09-03T09:10:30;4.97;;;4.22;;
62848;SDS011;48941;49.516;8.286;2022-09-03T09:13:07;8.20;;;4.50;;
62848;SDS011;48941;49.516;8.286;2022-09-03T09:15:46;4.45;;;4.00;;
62848;SDS011;48941;49.516;8.286;2022-09-03T09:18:22;7.82;;;4.63;;
62848;SDS011;48941;49.516;8.286;2022-09-03T09:21:05;8.25;;;4.70;;
62848;SDS011;48941;49.516;8.286;2022-09-03T09:23:43;12.13;;;5.28;;
62848;SDS011;48941;49.516;8.286;2022-09-03T09:26:14;7.05;;;4.68;;
62848;SDS011;48941;49.516;8.286;2022-09-03T09:28:45;5.75;;;5.10;;
62848;SDS011;48941;49.516;8.286;2022-09-03T09:31:17;6.70;;;5.40;;
62848;SDS011;48941;49.516;8.286;2022-09-03T09:33:45;6.07;;;5.38;;
62848;SDS011;48941;49.516;8.286;2022-09-03T09:36:14;7.00;;;5.70;;
62848;SDS011;48941;49.516;8.286;2022-09-03T09:38:44;5.80;;;5.20;;
62848;SDS011;48941;49.516;8.286;2022-09-03T09:41:14;7.70;;;4.95;;
62848;SDS011;48941;49.516;8.286;2022-09-03T09:43:44;6.57;;;4.55;;
62848;SDS011;48941;49.516;8.286;2022-09-03T09:46:14;6.63;;;4.93;;
62848;SDS011;48941;49.516;8.286;2022-09-03T09:48:47;5.50;;;4.55;;
62848;SDS011;48941;49.516;8.286;2022-09-03T09:51:18;4.90;;;4.30;;
62848;SDS011;48941;49.516;8.286;2022-09-03T09:53:47;6.10;;;4.78;;
62848;SDS011;48941;49.516;8.286;2022-09-03T09:56:19;6.82;;;4.50;;
62848;SDS011;48941;49.516;8.286;2022-09-03T09:58:49;5.28;;;4.60;;
62848;SDS011;48941;49.516;8.286;2022-09-03T10:01:28;5.68;;;4.88;;
62848;SDS011;48941;49.516;8.286;2022-09-03T10:03:59;5.68;;;4.97;;
62848;SDS011;48941;49.516;8.286;2022-09-03T10:06:34;5.00;;;4.50;;
62848;SDS011;48941;49.516;8.286;2022-09-03T10:09:22;7.63;;;5.18;;
62848;SDS011;48941;49.516;8.286;2022-09-03T10:12:00;6.38;;;5.20;;
62848;SDS011;48941;49.516;8.286;2022-09-03T10:14:40;5.25;;;4.75;;
62848;SDS011;48941;49.516;8.286;2022-09-03T10:17:14;5.95;;;4.85;;
62848;SDS011;48941;49.516;8.286;2022-09-03T10:19:55;5.38;;;4.88;;
62848;SDS011;48941;49.516;8.286;2022-09-03T10:22:49;5.43;;;4.90;;
62848;SDS011;48941;49.516;8.286;2022-09-03T10:25:24;6.70;;;5.00;;
62848;SDS011;48941;49.516;8.286;2022-09-03T10:27:55;6.63;;;5.22;;
62848;SDS011;48941;49.516;8.286;2022-09-03T10:30:27;7.47;;;4.83;;
62848;SDS011;48941;49.516;8.286;2022-09-03T10:33:07;7.28;;;5.00;;
62848;SDS011;48941;49.516;8.286;2022-09-03T10:35:44;8.27;;;4.82;;
62848;SDS011;48941;49.516;8.286;2022-09-03T10:38:21;5.57;;;4.15;;
62848;SDS011;48941;49.516;8.286;2022-09-03T10:40:58;6.97;;;4.53;;
62848;SDS011;48941;49.516;8.286;2022-09-03T10:46:26;5.20;;;4.65;;
62848;SDS011;48941;49.516;8.286;2022-09-03T10:51:49;5.22;;;4.53;;
62848;SDS011;48941;49.516;8.286;2022-09-03T10:54:29;6.68;;;5.40;;
62848;SDS011;48941;49.516;8.286;2022-09-03T10:57:07;6.63;;;5.53;;
62848;SDS011;48941;49.516;8.286;2022-09-03T10:59:49;6.32;;;5.35;;
62848;SDS011;48941;49.516;8.286;2022-09-03T11:05:34;7.10;;;4.95;;
62848;SDS011;48941;49.516;8.286;2022-09-03T11:08:08;5.70;;;5.10;;
62848;SDS011;48941;49.516;8.286;2022-09-03T11:10:41;9.50;;;5.70;;
62848;SDS011;48941;49.516;8.286;2022-09-03T11:13:13;9.45;;;5.13;;
62848;SDS011;48941;49.516;8.286;2022-09-03T11:15:48;7.15;;;5.30;;
62848;SDS011;48941;49.516;8.286;2022-09-03T11:18:21;6.45;;;5.30;;
62848;SDS011;48941;49.516;8.286;2022-09-03T11:20:53;8.85;;;5.45;;
62848;SDS011;48941;49.516;8.286;2022-09-03T11:25:57;6.90;;;5.35;;
62848;SDS011;48941;49.516;8.286;2022-09-03T11:28:33;5.38;;;4.80;;
62848;SDS011;48941;49.516;8.286;2022-09-03T11:31:21;8.30;;;5.57;;
62848;SDS011;48941;49.516;8.286;2022-09-03T11:33:58;6.03;;;5.20;;
62848;SDS011;48941;49.516;8.286;2022-09-03T11:36:34;6.03;;;5.10;;
62848;SDS011;48941;49.516;8.286;2022-09-03T11:39:19;6.28;;;5.13;;
62848;SDS011;48941;49.516;8.286;2022-09-03T11:41:56;5.13;;;4.60;;
62848;SDS011;48941;49.516;8.286;2022-09-03T11:44:34;5.30;;;4.80;;
62848;SDS011;48941;49.516;8.286;2022-09-03T11:47:20;5.82;;;4.78;;
62848;SDS011;48941;49.516;8.286;2022-09-03T11:49:50;9.35;;;5.32;;
62848;SDS011;48941;49.516;8.286;2022-09-03T11:52:26;5.00;;;4.50;;
62848;SDS011;48941;49.516;8.286;2022-09-03T11:54:57;6.15;;;4.45;;
62848;SDS011;48941;49.516;8.286;2022-09-03T11:57:26;4.30;;;3.90;;
62848;SDS011;48941;49.516;8.286;2022-09-03T12:00:06;4.20;;;3.80;;
62848;SDS011;48941;49.516;8.286;2022-09-03T12:02:41;4.50;;;3.30;;
62848;SDS011;48941;49.516;8.286;2022-09-03T12:05:20;3.47;;;3.17;;
62848;SDS011;48941;49.516;8.286;2022-09-03T12:07:57;7.32;;;3.30;;
62848;SDS011;48941;49.516;8.286;2022-09-03T12:10:39;4.00;;;3.22;;
62848;SDS011;48941;49.516;8.286;2022-09-03T12:13:17;5.72;;;3.53;;
62848;SDS011;48941;49.516;8.286;2022-09-03T12:18:49;4.38;;;3.60;;
62848;SDS011;48941;49.516;8.286;2022-09-03T12:21:20;3.50;;;3.20;;
62848;SDS011;48941;49.516;8.286;2022-09-03T12:23:48;3.28;;;2.97;;
62848;SDS011;48941;49.516;8.286;2022-09-03T12:26:25;4.95;;;2.08;;
62848;SDS011;48941;49.516;8.286;2022-09-03T12:28:54;2.90;;;2.60;;
62848;SDS011;48941;49.516;8.286;2022-09-03T12:31:24;3.13;;;2.90;;
62848;SDS011;48941;49.516;8.286;2022-09-03T12:33:56;5.50;;;3.17;;
62848;SDS011;48941;49.516;8.286;2022-09-03T12:36:26;3.58;;;2.80;;
62848;SDS011;48941;49.516;8.286;2022-09-03T12:39:06;4.05;;;3.03;;
62848;SDS011;48941;49.516;8.286;2022-09-03T12:41:45;3.63;;;2.80;;
62848;SDS011;48941;49.516;8.286;2022-09-03T12:44:25;4.90;;;3.17;;
62848;SDS011;48941;49.516;8.286;2022-09-03T12:47:01;4.90;;;3.80;;
62848;SDS011;48941;49.516;8.286;2022-09-03T12:49:52;3.83;;;3.50;;
62848;SDS011;48941;49.516;8.286;2022-09-03T12:54:53;2.70;;;2.50;;
62848;SDS011;48941;49.516;8.286;2022-09-03T12:57:28;4.95;;;3.40;;
62848;SDS011;48941;49.516;8.286;2022-09-03T13:00:02;4.75;;;4.00;;
62848;SDS011;48941;49.516;8.286;2022-09-03T13:02:35;2.97;;;2.42;;
62848;SDS011;48941;49.516;8.286;2022-09-03T13:05:09;3.42;;;2.42;;
62848;SDS011;48941;49.516;8.286;2022-09-03T13:07:43;3.63;;;2.13;;
62848;SDS011;48941;49.516;8.286;2022-09-03T13:10:15;2.60;;;2.40;;
62848;SDS011;48941;49.516;8.286;2022-09-03T13:12:57;2.45;;;2.25;;
62848;SDS011;48941;49.516;8.286;2022-09-03T13:15:27;2.45;;;2.25;;
62848;SDS011;48941;49.516;8.286;2022-09-03T13:20:53;3.55;;;2.58;;
62848;SDS011;48941;49.516;8.286;2022-09-03T13:23:47;2.90;;;2.60;;
62848;SDS011;48941;49.516;8.286;2022-09-03T13:26:24;2.75;;;2.50;;
62848;SDS011;48941;49.516;8.286;2022-09-03T13:29:14;2.90;;;2.70;;
62848;SDS011;48941;49.516;8.286;2022-09-03T13:31:56;2.70;;;2.50;;
62848;SDS011;48941;49.516;8.286;2022-09-03T13:34:33;3.03;;;2.60;;
62848;SDS011;48941;49.516;8.286;2022-09-03T13:37:07;3.30;;;2.70;;
62848;SDS011;48941;49.516;8.286;2022-09-03T13:39:45;3.83;;;3.22;;
62848;SDS011;48941;49.516;8.286;2022-09-03T13:42:19;2.55;;;2.35;;
62848;SDS011;48941;49.516;8.286;2022-09-03T13:44:55;3.10;;;2.40;;
62848;SDS011;48941;49.516;8.286;2022-09-03T13:47:33;2.65;;;2.42;;
62848;SDS011;48941;49.516;8.286;2022-09-03T13:50:26;2.67;;;2.30;;
62848;SDS011;48941;49.516;8.286;2022-09-03T13:52:57;4.00;;;2.83;;
62848;SDS011;48941;49.516;8.286;2022-09-03T13:55:31;3.17;;;2.63;;
62848;SDS011;48941;49.516;8.286;2022-09-03T13:58:05;3.38;;;2.80;;
62848;SDS011;48941;49.516;8.286;2022-09-03T14:00:39;2.80;;;2.60;;
62848;SDS011;48941;49.516;8.286;2022-09-03T14:03:11;3.13;;;2.85;;
62848;SDS011;48941;49.516;8.286;2022-09-03T14:05:54;4.90;;;3.40;;
62848;SDS011;48941;49.516;8.286;2022-09-03T14:08:33;7.18;;;2.75;;
62848;SDS011;48941;49.516;8.286;2022-09-03T14:11:22;5.28;;;3.38;;
62848;SDS011;48941;49.516;8.286;2022-09-03T14:14:01;3.03;;;2.50;;
62848;SDS011;48941;49.516;8.286;2022-09-03T14:16:41;4.35;;;2.67;;
62848;SDS011;48941;49.516;8.286;2022-09-03T14:19:18;4.43;;;2.60;;
62848;SDS011;48941;49.516;8.286;2022-09-03T14:21:51;4.22;;;2.72;;
62848;SDS011;48941;49.516;8.286;2022-09-03T14:24:23;5.32;;;3.20;;
62848;SDS011;48941;49.516;8.286;2022-09-03T14:26:56;5.18;;;3.03;;
62848;SDS011;48941;49.516;8.286;2022-09-03T14:29:28;2.83;;;2.38;;
62848;SDS011;48941;49.516;8.286;2022-09-03T14:32:13;2.40;;;2.20;;
62848;SDS011;48941;49.516;8.286;2022-09-03T14:38:03;2.30;;;2.10;;
62848;SDS011;48941;49.516;8.286;2022-09-03T14:40:52;3.00;;;2.60;;
62848;SDS011;48941;49.516;8.286;2022-09-03T14:43:42;2.90;;;2.60;;
62848;SDS011;48941;49.516;8.286;2022-09-03T14:46:38;2.55;;;2.35;;
62848;SDS011;48941;49.516;8.286;2022-09-03T14:49:18;2.63;;;2.40;;
62848;SDS011;48941;49.516;8.286;2022-09-03T14:52:09;2.72;;;2.53;;
62848;SDS011;48941;49.516;8.286;2022-09-03T14:55:03;2.95;;;2.67;;
62848;SDS011;48941;49.516;8.286;2022-09-03T14:57:47;2.70;;;2.50;;
62848;SDS011;48941;49.516;8.286;2022-09-03T15:00:35;3.10;;;2.80;;
62848;SDS011;48941;49.516;8.286;2022-09-03T15:03:33;5.20;;;2.70;;
62848;SDS011;48941;49.516;8.286;2022-09-03T15:06:15;4.05;;;2.90;;
62848;SDS011;48941;49.516;8.286;2022-09-03T15:09:10;3.85;;;3.17;;
62848;SDS011;48941;49.516;8.286;2022-09-03T15:11:48;4.45;;;3.00;;
62848;SDS011;48941;49.516;8.286;2022-09-03T15:14:20;7.82;;;3.40;;
62848;SDS011;48941;49.516;8.286;2022-09-03T15:16:55;3.10;;;2.80;;
62848;SDS011;48941;49.516;8.286;2022-09-03T15:19:34;3.58;;;2.65;;
62848;SDS011;48941;49.516;8.286;2022-09-03T15:22:13;2.97;;;2.67;;
62848;SDS011;48941;49.516;8.286;2022-09-03T15:24:55;4.20;;;2.50;;
62848;SDS011;48941;49.516;8.286;2022-09-03T15:27:37;5.60;;;2.80;;
62848;SDS011;48941;49.516;8.286;2022-09-03T15:30:18;3.10;;;2.80;;
62848;SDS011;48941;49.516;8.286;2022-09-03T15:32:48;4.22;;;3.20;;
62848;SDS011;48941;49.516;8.286;2022-09-03T15:35:30;5.20;;;2.97;;
62848;SDS011;48941;49.516;8.286;2022-09-03T15:38:08;5.97;;;2.60;;
62848;SDS011;48941;49.516;8.286;2022-09-03T15:40:40;5.68;;;3.60;;
62848;SDS011;48941;49.516;8.286;2022-09-03T15:43:17;6.82;;;3.33;;
62848;SDS011;48941;49.516;8.286;2022-09-03T15:45:51;2.60;;;2.38;;
62848;SDS011;48941;49.516;8.286;2022-09-03T15:48:29;3.47;;;2.30;;
62848;SDS011;48941;49.516;8.286;2022-09-03T15:51:05;4.25;;;2.67;;
62848;SDS011;48941;49.516;8.286;2022-09-03T15:53:45;2.38;;;2.10;;
62848;SDS011;48941;49.516;8.286;2022-09-03T15:56:21;3.67;;;2.25;;
62848;SDS011;48941;49.516;8.286;2022-09-03T15:59:00;5.78;;;2.42;;
62848;SDS011;48941;49.516;8.286;2022-09-03T16:01:34;4.10;;;2.55;;
62848;SDS011;48941;49.516;8.286;2022-09-03T16:04:16;5.47;;;2.83;;